sensor_id;sensor_type;location;lat;lon;timestamp;P1;durP1;ratioP1;P2;durP2;ratioP2
75220;SDS011;63802;53.232;6.570;2023-04-06T00:00:36;16.38;;;5.72;;
75220;SDS011;63802;53.232;6.570;2023-04-06T00:03:01;10.70;;;5.72;;
75220;SDS011;63802;53.232;6.570;2023-04-06T00:05:26;15.45;;;5.75;;
75220;SDS011;63802;53.232;6.570;2023-04-06T00:07:55;13.52;;;5.70;;
75220;SDS011;63802;53.232;6.570;2023-04-06T00:10:22;9.95;;;4.90;;
75220;SDS011;63802;53.232;6.570;2023-04-06T00:12:47;11.30;;;5.43;;
75220;SDS011;63802;53.232;6.570;2023-04-06T00:15:12;12.68;;;5.38;;
75220;SDS011;63802;53.232;6.570;2023-04-06T00:17:38;11.43;;;5.38;;
75220;SDS011;63802;53.232;6.570;2023-04-06T00:20:03;18.95;;;6.05;;
75220;SDS011;63802;53.232;6.570;2023-04-06T00:22:29;11.05;;;5.97;;
75220;SDS011;63802;53.232;6.570;2023-04-06T00:24:56;14.50;;;6.43;;
75220;SDS011;63802;53.232;6.570;2023-04-06T00:27:21;14.73;;;5.45;;
75220;SDS011;63802;53.232;6.570;2023-04-06T00:29:47;10.57;;;5.55;;
75220;SDS011;63802;53.232;6.570;2023-04-06T00:32:12;13.85;;;5.57;;
75220;SDS011;63802;53.232;6.570;2023-04-06T00:34:37;10.70;;;5.28;;
75220;SDS011;63802;53.232;6.570;2023-04-06T00:37:03;11.05;;;5.85;;
75220;SDS011;63802;53.232;6.570;2023-04-06T00:39:28;11.68;;;5.65;;
75220;SDS011;63802;53.232;6.570;2023-04-06T00:41:54;12.38;;;6.18;;
75220;SDS011;63802;53.232;6.570;2023-04-06T00:44:20;10.73;;;5.90;;
75220;SDS011;63802;53.232;6.570;2023-04-06T00:46:46;10.90;;;5.75;;
75220;SDS011;63802;53.232;6.570;2023-04-06T00:49:12;12.38;;;5.63;;
75220;SDS011;63802;53.232;6.570;2023-04-06T00:51:37;12.27;;;5.32;;
75220;SDS011;63802;53.232;6.570;2023-04-06T00:54:03;16.83;;;6.32;;
75220;SDS011;63802;53.232;6.570;2023-04-06T00:56:28;12.98;;;5.90;;
75220;SDS011;63802;53.232;6.570;2023-04-06T00:58:54;13.82;;;6.18;;
75220;SDS011;63802;53.232;6.570;2023-04-06T01:01:19;13.52;;;6.38;;
75220;SDS011;63802;53.232;6.570;2023-04-06T01:03:45;16.13;;;5.85;;
75220;SDS011;63802;53.232;6.570;2023-04-06T01:06:14;13.82;;;6.13;;
75220;SDS011;63802;53.232;6.570;2023-04-06T01:08:39;13.02;;;6.18;;
75220;SDS011;63802;53.232;6.570;2023-04-06T01:11:04;12.38;;;6.03;;
75220;SDS011;63802;53.232;6.570;2023-04-06T01:13:30;12.32;;;6.30;;
75220;SDS011;63802;53.232;6.570;2023-04-06T01:15:55;12.52;;;5.57;;
75220;SDS011;63802;53.232;6.570;2023-04-06T01:18:27;11.77;;;5.75;;
75220;SDS011;63802;53.232;6.570;2023-04-06T01:20:54;12.43;;;6.13;;
75220;SDS011;63802;53.232;6.570;2023-04-06T01:23:19;14.52;;;6.75;;
75220;SDS011;63802;53.232;6.570;2023-04-06T01:25:44;13.00;;;5.88;;
75220;SDS011;63802;53.232;6.570;2023-04-06T01:28:10;15.00;;;5.80;;
75220;SDS011;63802;53.232;6.570;2023-04-06T01:30:35;15.52;;;6.32;;
75220;SDS011;63802;53.232;6.570;2023-04-06T01:33:01;13.27;;;6.25;;
75220;SDS011;63802;53.232;6.570;2023-04-06T01:35:27;13.57;;;5.82;;
75220;SDS011;63802;53.232;6.570;2023-04-06T01:37:53;12.25;;;6.18;;
75220;SDS011;63802;53.232;6.570;2023-04-06T01:40:18;14.85;;;6.57;;
75220;SDS011;63802;53.232;6.570;2023-04-06T01:42:44;15.20;;;6.07;;
75220;SDS011;63802;53.232;6.570;2023-04-06T01:45:10;12.30;;;6.18;;
75220;SDS011;63802;53.232;6.570;2023-04-06T01:47:35;12.52;;;6.03;;
75220;SDS011;63802;53.232;6.570;2023-04-06T01:50:01;13.82;;;6.05;;
75220;SDS011;63802;53.232;6.570;2023-04-06T01:52:27;13.13;;;6.57;;
75220;SDS011;63802;53.232;6.570;2023-04-06T01:54:54;10.23;;;5.60;;
75220;SDS011;63802;53.232;6.570;2023-04-06T01:57:19;16.23;;;5.60;;
75220;SDS011;63802;53.232;6.570;2023-04-06T01:59:45;14.05;;;6.20;;
75220;SDS011;63802;53.232;6.570;2023-04-06T02:02:11;14.73;;;6.35;;
75220;SDS011;63802;53.232;6.570;2023-04-06T02:04:37;11.20;;;5.20;;
75220;SDS011;63802;53.232;6.570;2023-04-06T02:07:03;13.43;;;5.60;;
75220;SDS011;63802;53.232;6.570;2023-04-06T02:09:29;13.48;;;6.97;;
75220;SDS011;63802;53.232;6.570;2023-04-06T02:11:54;12.32;;;6.20;;
75220;SDS011;63802;53.232;6.570;2023-04-06T02:14:20;13.30;;;6.05;;
75220;SDS011;63802;53.232;6.570;2023-04-06T02:16:46;12.60;;;6.10;;
75220;SDS011;63802;53.232;6.570;2023-04-06T02:19:11;12.88;;;6.03;;
75220;SDS011;63802;53.232;6.570;2023-04-06T02:21:37;16.35;;;6.38;;
75220;SDS011;63802;53.232;6.570;2023-04-06T02:24:03;15.60;;;6.25;;
75220;SDS011;63802;53.232;6.570;2023-04-06T02:26:28;12.48;;;6.03;;
75220;SDS011;63802;53.232;6.570;2023-04-06T02:28:54;12.25;;;6.15;;
75220;SDS011;63802;53.232;6.570;2023-04-06T02:31:20;12.65;;;6.20;;
75220;SDS011;63802;53.232;6.570;2023-04-06T02:33:45;14.15;;;6.30;;
75220;SDS011;63802;53.232;6.570;2023-04-06T02:36:10;13.57;;;6.82;;
75220;SDS011;63802;53.232;6.570;2023-04-06T02:38:36;15.43;;;6.35;;
75220;SDS011;63802;53.232;6.570;2023-04-06T02:41:02;16.13;;;6.00;;
75220;SDS011;63802;53.232;6.570;2023-04-06T02:43:27;13.85;;;6.38;;
75220;SDS011;63802;53.232;6.570;2023-04-06T02:45:53;14.13;;;5.65;;
75220;SDS011;63802;53.232;6.570;2023-04-06T02:48:19;15.20;;;6.63;;
75220;SDS011;63802;53.232;6.570;2023-04-06T02:50:44;13.35;;;6.55;;
75220;SDS011;63802;53.232;6.570;2023-04-06T02:53:10;17.55;;;6.45;;
75220;SDS011;63802;53.232;6.570;2023-04-06T02:55:35;12.30;;;6.22;;
75220;SDS011;63802;53.232;6.570;2023-04-06T02:58:01;19.23;;;6.15;;
75220;SDS011;63802;53.232;6.570;2023-04-06T03:00:27;15.02;;;6.45;;
75220;SDS011;63802;53.232;6.570;2023-04-06T03:02:52;12.02;;;5.63;;
75220;SDS011;63802;53.232;6.570;2023-04-06T03:05:18;11.77;;;6.28;;
75220;SDS011;63802;53.232;6.570;2023-04-06T03:07:43;14.77;;;5.97;;
75220;SDS011;63802;53.232;6.570;2023-04-06T03:10:09;16.25;;;6.50;;
75220;SDS011;63802;53.232;6.570;2023-04-06T03:12:35;14.15;;;6.00;;
75220;SDS011;63802;53.232;6.570;2023-04-06T03:15:00;12.77;;;6.03;;
75220;SDS011;63802;53.232;6.570;2023-04-06T03:17:26;13.00;;;6.32;;
75220;SDS011;63802;53.232;6.570;2023-04-06T03:19:51;12.20;;;6.03;;
75220;SDS011;63802;53.232;6.570;2023-04-06T03:22:17;14.07;;;6.80;;
75220;SDS011;63802;53.232;6.570;2023-04-06T03:24:45;14.70;;;6.20;;
75220;SDS011;63802;53.232;6.570;2023-04-06T03:27:11;15.07;;;6.95;;
75220;SDS011;63802;53.232;6.570;2023-04-06T03:29:36;15.52;;;6.88;;
75220;SDS011;63802;53.232;6.570;2023-04-06T03:32:02;14.10;;;6.47;;
75220;SDS011;63802;53.232;6.570;2023-04-06T03:34:27;11.60;;;5.95;;
75220;SDS011;63802;53.232;6.570;2023-04-06T03:36:53;15.48;;;6.07;;
75220;SDS011;63802;53.232;6.570;2023-04-06T03:39:18;12.52;;;6.43;;
75220;SDS011;63802;53.232;6.570;2023-04-06T03:41:44;13.32;;;5.60;;
75220;SDS011;63802;53.232;6.570;2023-04-06T03:44:09;14.25;;;6.72;;
75220;SDS011;63802;53.232;6.570;2023-04-06T03:46:35;14.07;;;6.10;;
75220;SDS011;63802;53.232;6.570;2023-04-06T03:49:00;13.15;;;6.20;;
75220;SDS011;63802;53.232;6.570;2023-04-06T03:51:26;15.10;;;6.57;;
75220;SDS011;63802;53.232;6.570;2023-04-06T03:53:52;15.30;;;6.22;;
75220;SDS011;63802;53.232;6.570;2023-04-06T03:56:17;14.57;;;6.38;;
75220;SDS011;63802;53.232;6.570;2023-04-06T03:58:43;14.80;;;6.57;;
75220;SDS011;63802;53.232;6.570;2023-04-06T04:01:10;14.40;;;6.25;;
75220;SDS011;63802;53.232;6.570;2023-04-06T04:03:36;15.85;;;7.03;;
75220;SDS011;63802;53.232;6.570;2023-04-06T04:06:04;12.95;;;6.10;;
75220;SDS011;63802;53.232;6.570;2023-04-06T04:08:30;13.50;;;6.28;;
75220;SDS011;63802;53.232;6.570;2023-04-06T04:10:56;16.55;;;7.03;;
75220;SDS011;63802;53.232;6.570;2023-04-06T04:13:21;14.95;;;6.68;;
75220;SDS011;63802;53.232;6.570;2023-04-06T04:15:47;15.43;;;6.75;;
75220;SDS011;63802;53.232;6.570;2023-04-06T04:18:16;13.80;;;6.47;;
75220;SDS011;63802;53.232;6.570;2023-04-06T04:20:41;15.77;;;6.15;;
75220;SDS011;63802;53.232;6.570;2023-04-06T04:23:06;15.45;;;6.03;;
75220;SDS011;63802;53.232;6.570;2023-04-06T04:25:32;12.45;;;6.05;;
75220;SDS011;63802;53.232;6.570;2023-04-06T04:27:58;13.13;;;6.40;;
75220;SDS011;63802;53.232;6.570;2023-04-06T04:30:23;15.52;;;6.35;;
75220;SDS011;63802;53.232;6.570;2023-04-06T04:32:48;13.25;;;6.60;;
75220;SDS011;63802;53.232;6.570;2023-04-06T04:35:14;14.23;;;6.30;;
75220;SDS011;63802;53.232;6.570;2023-04-06T04:37:40;17.80;;;6.10;;
75220;SDS011;63802;53.232;6.570;2023-04-06T04:40:06;14.95;;;6.13;;
75220;SDS011;63802;53.232;6.570;2023-04-06T04:42:33;11.63;;;6.07;;
75220;SDS011;63802;53.232;6.570;2023-04-06T04:44:58;14.70;;;6.10;;
75220;SDS011;63802;53.232;6.570;2023-04-06T04:47:24;12.40;;;5.88;;
75220;SDS011;63802;53.232;6.570;2023-04-06T04:49:49;11.85;;;5.95;;
75220;SDS011;63802;53.232;6.570;2023-04-06T04:52:15;11.45;;;6.05;;
75220;SDS011;63802;53.232;6.570;2023-04-06T04:54:40;14.57;;;6.85;;
75220;SDS011;63802;53.232;6.570;2023-04-06T04:57:06;12.68;;;5.32;;
75220;SDS011;63802;53.232;6.570;2023-04-06T04:59:32;12.98;;;5.90;;
75220;SDS011;63802;53.232;6.570;2023-04-06T05:01:58;13.10;;;6.45;;
75220;SDS011;63802;53.232;6.570;2023-04-06T05:04:24;15.20;;;6.30;;
75220;SDS011;63802;53.232;6.570;2023-04-06T05:06:50;13.00;;;6.53;;
75220;SDS011;63802;53.232;6.570;2023-04-06T05:09:15;12.98;;;6.90;;
75220;SDS011;63802;53.232;6.570;2023-04-06T05:11:40;12.63;;;5.88;;
75220;SDS011;63802;53.232;6.570;2023-04-06T05:14:06;15.63;;;6.75;;
75220;SDS011;63802;53.232;6.570;2023-04-06T05:16:33;13.30;;;6.30;;
75220;SDS011;63802;53.232;6.570;2023-04-06T05:18:59;12.77;;;6.25;;
75220;SDS011;63802;53.232;6.570;2023-04-06T05:21:24;14.23;;;5.68;;
75220;SDS011;63802;53.232;6.570;2023-04-06T05:23:52;14.98;;;6.18;;
75220;SDS011;63802;53.232;6.570;2023-04-06T05:26:19;11.48;;;6.03;;
75220;SDS011;63802;53.232;6.570;2023-04-06T05:28:44;13.73;;;5.72;;
75220;SDS011;63802;53.232;6.570;2023-04-06T05:31:10;12.95;;;6.40;;
75220;SDS011;63802;53.232;6.570;2023-04-06T05:33:36;14.38;;;6.10;;
75220;SDS011;63802;53.232;6.570;2023-04-06T05:36:01;14.38;;;5.78;;
75220;SDS011;63802;53.232;6.570;2023-04-06T05:38:28;14.75;;;6.70;;
75220;SDS011;63802;53.232;6.570;2023-04-06T05:40:54;12.93;;;7.03;;
75220;SDS011;63802;53.232;6.570;2023-04-06T05:43:19;15.48;;;5.88;;
75220;SDS011;63802;53.232;6.570;2023-04-06T05:45:45;14.30;;;5.60;;
75220;SDS011;63802;53.232;6.570;2023-04-06T05:48:10;13.27;;;6.05;;
75220;SDS011;63802;53.232;6.570;2023-04-06T05:50:35;13.82;;;5.45;;
75220;SDS011;63802;53.232;6.570;2023-04-06T05:53:01;14.02;;;6.70;;
75220;SDS011;63802;53.232;6.570;2023-04-06T05:55:26;9.40;;;4.95;;
75220;SDS011;63802;53.232;6.570;2023-04-06T05:57:52;11.85;;;5.80;;
75220;SDS011;63802;53.232;6.570;2023-04-06T06:00:18;14.07;;;6.03;;
75220;SDS011;63802;53.232;6.570;2023-04-06T06:02:44;12.65;;;6.28;;
75220;SDS011;63802;53.232;6.570;2023-04-06T06:05:10;12.27;;;5.68;;
75220;SDS011;63802;53.232;6.570;2023-04-06T06:07:35;16.15;;;6.07;;
75220;SDS011;63802;53.232;6.570;2023-04-06T06:10:01;11.98;;;5.32;;
75220;SDS011;63802;53.232;6.570;2023-04-06T06:12:27;11.75;;;6.13;;
75220;SDS011;63802;53.232;6.570;2023-04-06T06:14:52;9.85;;;5.90;;
75220;SDS011;63802;53.232;6.570;2023-04-06T06:17:18;11.50;;;5.13;;
75220;SDS011;63802;53.232;6.570;2023-04-06T06:19:44;13.95;;;6.20;;
75220;SDS011;63802;53.232;6.570;2023-04-06T06:22:09;11.65;;;5.85;;
75220;SDS011;63802;53.232;6.570;2023-04-06T06:24:36;13.38;;;5.88;;
75220;SDS011;63802;53.232;6.570;2023-04-06T06:27:01;14.88;;;6.10;;
75220;SDS011;63802;53.232;6.570;2023-04-06T06:29:26;10.98;;;5.90;;
75220;SDS011;63802;53.232;6.570;2023-04-06T06:31:52;10.93;;;5.70;;
75220;SDS011;63802;53.232;6.570;2023-04-06T06:34:17;14.77;;;6.10;;
75220;SDS011;63802;53.232;6.570;2023-04-06T06:36:43;12.07;;;5.68;;
75220;SDS011;63802;53.232;6.570;2023-04-06T06:39:08;13.30;;;6.05;;
75220;SDS011;63802;53.232;6.570;2023-04-06T06:41:35;10.63;;;5.97;;
75220;SDS011;63802;53.232;6.570;2023-04-06T06:44:00;14.07;;;6.03;;
75220;SDS011;63802;53.232;6.570;2023-04-06T06:46:26;15.00;;;6.60;;
75220;SDS011;63802;53.232;6.570;2023-04-06T06:48:51;15.18;;;6.55;;
75220;SDS011;63802;53.232;6.570;2023-04-06T06:51:17;11.98;;;6.13;;
75220;SDS011;63802;53.232;6.570;2023-04-06T06:53:42;13.25;;;6.82;;
75220;SDS011;63802;53.232;6.570;2023-04-06T06:56:08;14.52;;;7.18;;
75220;SDS011;63802;53.232;6.570;2023-04-06T06:58:33;15.80;;;6.47;;
75220;SDS011;63802;53.232;6.570;2023-04-06T07:00:58;12.95;;;6.72;;
75220;SDS011;63802;53.232;6.570;2023-04-06T07:03:24;14.30;;;6.05;;
75220;SDS011;63802;53.232;6.570;2023-04-06T07:05:50;10.65;;;5.85;;
75220;SDS011;63802;53.232;6.570;2023-04-06T07:08:23;14.45;;;6.15;;
75220;SDS011;63802;53.232;6.570;2023-04-06T07:10:50;12.20;;;6.53;;
75220;SDS011;63802;53.232;6.570;2023-04-06T07:13:21;11.20;;;5.78;;
75220;SDS011;63802;53.232;6.570;2023-04-06T07:15:48;16.23;;;6.10;;
75220;SDS011;63802;53.232;6.570;2023-04-06T07:18:14;16.75;;;6.40;;
75220;SDS011;63802;53.232;6.570;2023-04-06T07:20:40;12.85;;;6.80;;
75220;SDS011;63802;53.232;6.570;2023-04-06T07:23:06;13.75;;;6.20;;
75220;SDS011;63802;53.232;6.570;2023-04-06T07:25:31;14.18;;;6.10;;
75220;SDS011;63802;53.232;6.570;2023-04-06T07:27:56;13.93;;;6.47;;
75220;SDS011;63802;53.232;6.570;2023-04-06T07:30:22;16.02;;;7.32;;
75220;SDS011;63802;53.232;6.570;2023-04-06T07:32:50;11.65;;;6.38;;
75220;SDS011;63802;53.232;6.570;2023-04-06T07:35:15;14.32;;;6.72;;
75220;SDS011;63802;53.232;6.570;2023-04-06T07:37:41;16.55;;;6.25;;
75220;SDS011;63802;53.232;6.570;2023-04-06T07:40:07;12.93;;;5.90;;
75220;SDS011;63802;53.232;6.570;2023-04-06T07:42:33;15.32;;;6.93;;
75220;SDS011;63802;53.232;6.570;2023-04-06T07:44:58;11.05;;;6.05;;
75220;SDS011;63802;53.232;6.570;2023-04-06T07:47:24;11.25;;;6.20;;
75220;SDS011;63802;53.232;6.570;2023-04-06T07:49:50;14.27;;;6.45;;
75220;SDS011;63802;53.232;6.570;2023-04-06T07:52:15;10.63;;;5.55;;
75220;SDS011;63802;53.232;6.570;2023-04-06T07:54:41;16.77;;;6.78;;
75220;SDS011;63802;53.232;6.570;2023-04-06T07:57:07;10.65;;;6.30;;
75220;SDS011;63802;53.232;6.570;2023-04-06T07:59:32;12.27;;;6.55;;
75220;SDS011;63802;53.232;6.570;2023-04-06T08:01:58;13.43;;;6.50;;
75220;SDS011;63802;53.232;6.570;2023-04-06T08:04:23;13.32;;;6.68;;
75220;SDS011;63802;53.232;6.570;2023-04-06T08:06:48;11.65;;;6.60;;
75220;SDS011;63802;53.232;6.570;2023-04-06T08:09:14;11.52;;;5.90;;
75220;SDS011;63802;53.232;6.570;2023-04-06T08:11:39;15.35;;;5.93;;
75220;SDS011;63802;53.232;6.570;2023-04-06T08:14:05;11.82;;;6.20;;
75220;SDS011;63802;53.232;6.570;2023-04-06T08:16:30;12.60;;;6.20;;
75220;SDS011;63802;53.232;6.570;2023-04-06T08:18:56;13.18;;;6.40;;
75220;SDS011;63802;53.232;6.570;2023-04-06T08:21:22;14.57;;;7.05;;
75220;SDS011;63802;53.232;6.570;2023-04-06T08:23:48;11.30;;;6.28;;
75220;SDS011;63802;53.232;6.570;2023-04-06T08:26:13;12.38;;;6.00;;
75220;SDS011;63802;53.232;6.570;2023-04-06T08:28:40;10.15;;;6.35;;
75220;SDS011;63802;53.232;6.570;2023-04-06T08:31:06;11.68;;;6.38;;
75220;SDS011;63802;53.232;6.570;2023-04-06T08:33:31;13.48;;;6.38;;
75220;SDS011;63802;53.232;6.570;2023-04-06T08:36:06;14.38;;;6.82;;
75220;SDS011;63802;53.232;6.570;2023-04-06T08:38:32;14.63;;;6.53;;
75220;SDS011;63802;53.232;6.570;2023-04-06T08:40:58;12.77;;;6.30;;
75220;SDS011;63802;53.232;6.570;2023-04-06T08:43:23;12.25;;;7.10;;
75220;SDS011;63802;53.232;6.570;2023-04-06T08:45:51;13.30;;;6.05;;
75220;SDS011;63802;53.232;6.570;2023-04-06T08:48:17;16.35;;;6.85;;
75220;SDS011;63802;53.232;6.570;2023-04-06T08:50:43;11.75;;;6.40;;
75220;SDS011;63802;53.232;6.570;2023-04-06T08:53:10;13.70;;;6.55;;
75220;SDS011;63802;53.232;6.570;2023-04-06T08:55:36;14.18;;;6.88;;
75220;SDS011;63802;53.232;6.570;2023-04-06T08:58:03;11.75;;;6.85;;
75220;SDS011;63802;53.232;6.570;2023-04-06T09:00:32;12.27;;;6.43;;
75220;SDS011;63802;53.232;6.570;2023-04-06T09:03:01;12.50;;;6.67;;
75220;SDS011;63802;53.232;6.570;2023-04-06T09:05:30;15.38;;;7.10;;
75220;SDS011;63802;53.232;6.570;2023-04-06T09:07:55;13.23;;;6.38;;
75220;SDS011;63802;53.232;6.570;2023-04-06T09:10:21;13.00;;;6.95;;
75220;SDS011;63802;53.232;6.570;2023-04-06T09:12:50;12.93;;;6.43;;
75220;SDS011;63802;53.232;6.570;2023-04-06T09:15:22;12.43;;;7.10;;
75220;SDS011;63802;53.232;6.570;2023-04-06T09:17:47;11.90;;;6.28;;
75220;SDS011;63802;53.232;6.570;2023-04-06T09:20:13;11.68;;;6.40;;
75220;SDS011;63802;53.232;6.570;2023-04-06T09:22:39;14.95;;;7.40;;
75220;SDS011;63802;53.232;6.570;2023-04-06T09:25:05;14.80;;;6.60;;
75220;SDS011;63802;53.232;6.570;2023-04-06T09:32:43;11.85;;;6.40;;
75220;SDS011;63802;53.232;6.570;2023-04-06T09:35:13;11.15;;;6.20;;
75220;SDS011;63802;53.232;6.570;2023-04-06T09:37:39;13.00;;;6.70;;
75220;SDS011;63802;53.232;6.570;2023-04-06T09:40:05;13.38;;;7.18;;
75220;SDS011;63802;53.232;6.570;2023-04-06T09:42:34;14.27;;;6.82;;
75220;SDS011;63802;53.232;6.570;2023-04-06T09:45:01;11.35;;;6.60;;
75220;SDS011;63802;53.232;6.570;2023-04-06T09:47:28;16.17;;;7.28;;
75220;SDS011;63802;53.232;6.570;2023-04-06T09:49:58;13.63;;;6.30;;
75220;SDS011;63802;53.232;6.570;2023-04-06T09:52:37;14.20;;;6.25;;
75220;SDS011;63802;53.232;6.570;2023-04-06T09:55:08;13.90;;;6.90;;
75220;SDS011;63802;53.232;6.570;2023-04-06T09:57:50;14.45;;;7.28;;
75220;SDS011;63802;53.232;6.570;2023-04-06T10:00:21;12.63;;;6.63;;
75220;SDS011;63802;53.232;6.570;2023-04-06T10:06:04;14.80;;;6.82;;
75220;SDS011;63802;53.232;6.570;2023-04-06T10:08:35;13.00;;;7.05;;
75220;SDS011;63802;53.232;6.570;2023-04-06T10:11:05;15.20;;;7.50;;
75220;SDS011;63802;53.232;6.570;2023-04-06T10:13:31;16.73;;;7.57;;
75220;SDS011;63802;53.232;6.570;2023-04-06T10:15:56;13.70;;;7.25;;
75220;SDS011;63802;53.232;6.570;2023-04-06T10:18:25;15.65;;;7.55;;
75220;SDS011;63802;53.232;6.570;2023-04-06T10:21:01;15.02;;;7.70;;
75220;SDS011;63802;53.232;6.570;2023-04-06T10:26:27;16.83;;;7.88;;
75220;SDS011;63802;53.232;6.570;2023-04-06T10:28:52;16.42;;;8.30;;
75220;SDS011;63802;53.232;6.570;2023-04-06T10:31:26;14.23;;;7.97;;
75220;SDS011;63802;53.232;6.570;2023-04-06T10:33:56;18.48;;;7.78;;
75220;SDS011;63802;53.232;6.570;2023-04-06T10:36:26;15.80;;;7.85;;
75220;SDS011;63802;53.232;6.570;2023-04-06T10:38:56;16.20;;;8.07;;
75220;SDS011;63802;53.232;6.570;2023-04-06T10:41:23;15.55;;;8.15;;
75220;SDS011;63802;53.232;6.570;2023-04-06T10:43:56;17.08;;;7.93;;
75220;SDS011;63802;53.232;6.570;2023-04-06T10:46:26;18.15;;;8.48;;
75220;SDS011;63802;53.232;6.570;2023-04-06T10:48:53;17.23;;;9.00;;
75220;SDS011;63802;53.232;6.570;2023-04-06T10:51:18;17.00;;;8.38;;
75220;SDS011;63802;53.232;6.570;2023-04-06T10:53:49;18.30;;;8.45;;
75220;SDS011;63802;53.232;6.570;2023-04-06T10:56:15;17.40;;;8.48;;
75220;SDS011;63802;53.232;6.570;2023-04-06T10:58:45;17.90;;;8.98;;
75220;SDS011;63802;53.232;6.570;2023-04-06T11:01:15;19.08;;;9.43;;
75220;SDS011;63802;53.232;6.570;2023-04-06T11:03:46;17.52;;;9.27;;
75220;SDS011;63802;53.232;6.570;2023-04-06T11:06:21;16.85;;;8.95;;
75220;SDS011;63802;53.232;6.570;2023-04-06T11:08:50;19.65;;;9.10;;
75220;SDS011;63802;53.232;6.570;2023-04-06T11:11:17;23.20;;;10.57;;
75220;SDS011;63802;53.232;6.570;2023-04-06T11:13:46;20.77;;;10.43;;
75220;SDS011;63802;53.232;6.570;2023-04-06T11:16:25;20.27;;;10.50;;
75220;SDS011;63802;53.232;6.570;2023-04-06T11:19:01;22.70;;;11.23;;
75220;SDS011;63802;53.232;6.570;2023-04-06T11:21:31;25.27;;;11.30;;
75220;SDS011;63802;53.232;6.570;2023-04-06T11:24:06;25.17;;;11.55;;
75220;SDS011;63802;53.232;6.570;2023-04-06T11:26:52;33.78;;;13.48;;
75220;SDS011;63802;53.232;6.570;2023-04-06T11:29:22;28.55;;;13.85;;
75220;SDS011;63802;53.232;6.570;2023-04-06T11:31:54;31.10;;;13.67;;
75220;SDS011;63802;53.232;6.570;2023-04-06T11:34:32;25.95;;;12.43;;
75220;SDS011;63802;53.232;6.570;2023-04-06T11:37:02;27.77;;;12.48;;
75220;SDS011;63802;53.232;6.570;2023-04-06T11:39:32;30.05;;;13.60;;
75220;SDS011;63802;53.232;6.570;2023-04-06T11:42:04;30.08;;;13.68;;
75220;SDS011;63802;53.232;6.570;2023-04-06T11:47:01;25.83;;;13.38;;
75220;SDS011;63802;53.232;6.570;2023-04-06T11:49:28;30.73;;;13.23;;
75220;SDS011;63802;53.232;6.570;2023-04-06T11:51:54;27.90;;;13.73;;
75220;SDS011;63802;53.232;6.570;2023-04-06T11:54:33;29.48;;;13.75;;
75220;SDS011;63802;53.232;6.570;2023-04-06T11:57:01;28.65;;;14.05;;
75220;SDS011;63802;53.232;6.570;2023-04-06T11:59:27;29.90;;;13.82;;
75220;SDS011;63802;53.232;6.570;2023-04-06T12:01:53;28.48;;;15.00;;
75220;SDS011;63802;53.232;6.570;2023-04-06T12:04:19;28.23;;;13.82;;
75220;SDS011;63802;53.232;6.570;2023-04-06T12:06:45;29.92;;;12.57;;
75220;SDS011;63802;53.232;6.570;2023-04-06T12:09:11;26.88;;;13.45;;
75220;SDS011;63802;53.232;6.570;2023-04-06T12:11:36;30.23;;;13.65;;
75220;SDS011;63802;53.232;6.570;2023-04-06T12:14:02;28.33;;;13.55;;
75220;SDS011;63802;53.232;6.570;2023-04-06T12:16:30;27.55;;;13.13;;
75220;SDS011;63802;53.232;6.570;2023-04-06T12:18:59;27.35;;;13.27;;
75220;SDS011;63802;53.232;6.570;2023-04-06T12:21:25;29.15;;;14.00;;
75220;SDS011;63802;53.232;6.570;2023-04-06T12:23:52;28.65;;;13.82;;
75220;SDS011;63802;53.232;6.570;2023-04-06T12:26:18;31.55;;;14.60;;
75220;SDS011;63802;53.232;6.570;2023-04-06T12:28:43;28.38;;;13.63;;
75220;SDS011;63802;53.232;6.570;2023-04-06T12:31:20;30.70;;;14.38;;
75220;SDS011;63802;53.232;6.570;2023-04-06T12:33:47;29.25;;;13.80;;
75220;SDS011;63802;53.232;6.570;2023-04-06T12:36:16;28.92;;;14.63;;
75220;SDS011;63802;53.232;6.570;2023-04-06T12:38:49;29.73;;;13.90;;
75220;SDS011;63802;53.232;6.570;2023-04-06T12:41:16;27.27;;;13.30;;
75220;SDS011;63802;53.232;6.570;2023-04-06T12:43:45;27.42;;;14.13;;
75220;SDS011;63802;53.232;6.570;2023-04-06T12:46:11;25.90;;;13.10;;
75220;SDS011;63802;53.232;6.570;2023-04-06T12:48:37;29.80;;;14.23;;
75220;SDS011;63802;53.232;6.570;2023-04-06T12:51:03;27.75;;;13.50;;
75220;SDS011;63802;53.232;6.570;2023-04-06T12:53:30;28.95;;;13.65;;
75220;SDS011;63802;53.232;6.570;2023-04-06T12:55:56;26.50;;;13.00;;
75220;SDS011;63802;53.232;6.570;2023-04-06T12:58:23;26.67;;;13.00;;
75220;SDS011;63802;53.232;6.570;2023-04-06T13:00:49;27.15;;;12.90;;
75220;SDS011;63802;53.232;6.570;2023-04-06T13:03:15;27.10;;;12.77;;
75220;SDS011;63802;53.232;6.570;2023-04-06T13:05:46;27.67;;;12.45;;
75220;SDS011;63802;53.232;6.570;2023-04-06T13:08:12;27.23;;;12.40;;
75220;SDS011;63802;53.232;6.570;2023-04-06T13:10:42;27.63;;;12.77;;
75220;SDS011;63802;53.232;6.570;2023-04-06T13:13:20;29.48;;;12.98;;
75220;SDS011;63802;53.232;6.570;2023-04-06T13:15:49;29.98;;;13.73;;
75220;SDS011;63802;53.232;6.570;2023-04-06T13:18:16;25.55;;;12.32;;
75220;SDS011;63802;53.232;6.570;2023-04-06T13:20:42;26.27;;;12.98;;
75220;SDS011;63802;53.232;6.570;2023-04-06T13:23:07;26.08;;;13.25;;
75220;SDS011;63802;53.232;6.570;2023-04-06T13:25:33;24.42;;;12.40;;
75220;SDS011;63802;53.232;6.570;2023-04-06T13:27:59;27.70;;;14.25;;
75220;SDS011;63802;53.232;6.570;2023-04-06T13:30:24;26.60;;;13.27;;
75220;SDS011;63802;53.232;6.570;2023-04-06T13:32:50;28.73;;;13.73;;
75220;SDS011;63802;53.232;6.570;2023-04-06T13:35:16;25.80;;;13.00;;
75220;SDS011;63802;53.232;6.570;2023-04-06T13:37:42;25.50;;;12.07;;
75220;SDS011;63802;53.232;6.570;2023-04-06T13:40:09;25.98;;;12.88;;
75220;SDS011;63802;53.232;6.570;2023-04-06T13:42:34;25.52;;;12.90;;
75220;SDS011;63802;53.232;6.570;2023-04-06T13:45:00;29.13;;;12.57;;
75220;SDS011;63802;53.232;6.570;2023-04-06T13:47:26;26.17;;;12.07;;
75220;SDS011;63802;53.232;6.570;2023-04-06T13:49:52;31.08;;;12.75;;
75220;SDS011;63802;53.232;6.570;2023-04-06T13:52:19;26.63;;;12.38;;
75220;SDS011;63802;53.232;6.570;2023-04-06T13:54:44;30.02;;;14.07;;
75220;SDS011;63802;53.232;6.570;2023-04-06T13:57:11;24.75;;;12.50;;
75220;SDS011;63802;53.232;6.570;2023-04-06T13:59:37;24.85;;;11.95;;
75220;SDS011;63802;53.232;6.570;2023-04-06T14:02:04;25.08;;;12.18;;
75220;SDS011;63802;53.232;6.570;2023-04-06T14:04:31;25.17;;;11.45;;
75220;SDS011;63802;53.232;6.570;2023-04-06T14:06:58;23.73;;;10.80;;
75220;SDS011;63802;53.232;6.570;2023-04-06T14:09:24;23.23;;;10.80;;
75220;SDS011;63802;53.232;6.570;2023-04-06T14:11:50;22.98;;;10.57;;
75220;SDS011;63802;53.232;6.570;2023-04-06T14:14:16;22.38;;;9.00;;
75220;SDS011;63802;53.232;6.570;2023-04-06T14:16:42;22.73;;;9.45;;
75220;SDS011;63802;53.232;6.570;2023-04-06T14:19:11;23.37;;;9.60;;
75220;SDS011;63802;53.232;6.570;2023-04-06T14:21:42;21.98;;;9.23;;
75220;SDS011;63802;53.232;6.570;2023-04-06T14:24:11;20.70;;;9.40;;
75220;SDS011;63802;53.232;6.570;2023-04-06T14:26:38;16.52;;;8.30;;
75220;SDS011;63802;53.232;6.570;2023-04-06T14:29:06;19.65;;;9.25;;
75220;SDS011;63802;53.232;6.570;2023-04-06T14:31:32;23.33;;;9.73;;
75220;SDS011;63802;53.232;6.570;2023-04-06T14:34:00;23.48;;;10.18;;
75220;SDS011;63802;53.232;6.570;2023-04-06T14:36:26;17.10;;;8.77;;
75220;SDS011;63802;53.232;6.570;2023-04-06T14:38:58;19.65;;;8.98;;
75220;SDS011;63802;53.232;6.570;2023-04-06T14:41:24;22.27;;;9.98;;